Time;durP1;ratioP1;P1;durP2;ratioP2;P2;SDS_P1;SDS_P2;PMS_P1;PMS_P2;Temp;Humidity;BMP_temperature;BMP_pressure;BME280_temperature;BME280_humidity;BME280_pressure;Samples;Min_cycle;Max_cycle;Signal;HPM_P1;HPM_P2
2022/12/28 00:00:38;;;;;;;11.47;7.53;;;0.00;99.90;;;-0.64;90.40;98807.31;5029661;28;20835;-75
2022/12/28 00:03:06;;;;;;;8.30;6.80;;;-0.10;99.90;;;-0.63;89.95;98799.25;5011940;28;20448;-77
2022/12/28 00:05:33;;;;;;;10.57;6.83;;;0.00;99.90;;;-0.60;89.94;98804.28;5027220;28;20942;-80
2022/12/28 00:08:01;;;;;;;10.47;7.20;;;-0.10;99.90;;;-0.53;89.66;98798.47;5023683;28;20456;-76
2022/12/28 00:10:30;;;;;;;7.87;6.07;;;-0.10;99.90;;;-0.61;89.96;98775.22;5030095;28;20453;-78
2022/12/28 00:12:57;;;;;;;11.70;6.50;;;0.00;99.90;;;-0.61;90.19;98773.41;5028302;28;20467;-79
2022/12/28 00:15:24;;;;;;;10.07;7.20;;;0.00;99.90;;;-0.64;89.80;98784.28;5029812;28;20488;-74
2022/12/28 00:17:51;;;;;;;11.03;6.73;;;0.00;99.90;;;-0.53;90.17;98777.22;5022079;28;20533;-78
2022/12/28 00:20:18;;;;;;;11.40;6.77;;;0.00;99.90;;;-0.61;90.08;98775.22;5035136;28;20465;-77
2022/12/28 00:22:45;;;;;;;10.77;6.63;;;0.00;99.90;;;-0.54;90.03;98764.94;5029247;28;20476;-76
2022/12/28 00:25:14;;;;;;;12.50;6.80;;;0.00;99.90;;;-0.59;90.55;98768.81;5030010;28;20489;-77
2022/12/28 00:27:41;;;;;;;10.67;7.20;;;0.00;99.90;;;-0.63;90.75;98756.78;5015523;28;20514;-76
2022/12/28 00:30:10;;;;;;;11.50;6.13;;;0.10;99.90;;;-0.63;90.37;98748.81;5026754;28;20455;-79
2022/12/28 00:32:37;;;;;;;8.20;6.83;;;0.10;99.90;;;-0.57;90.24;98756.25;5029960;28;20837;-77
2022/12/28 00:35:06;;;;;;;9.60;6.70;;;0.00;99.90;;;-0.58;90.26;98764.38;5022668;28;20850;-75
2022/12/28 00:37:33;;;;;;;10.93;6.63;;;0.00;99.90;;;-0.59;90.05;98752.88;5026485;28;21004;-75
2022/12/28 00:40:00;;;;;;;9.97;5.80;;;-0.10;99.90;;;-0.60;90.08;98761.81;5029101;28;20472;-77
2022/12/28 00:42:29;;;;;;;9.07;6.30;;;0.00;99.90;;;-0.58;90.33;98756.41;5030308;28;20539;-76
2022/12/28 00:44:56;;;;;;;8.53;6.90;;;0.00;99.90;;;-0.66;90.55;98757.03;5019411;28;20463;-76
2022/12/28 00:47:23;;;;;;;7.80;6.53;;;-0.10;99.90;;;-0.60;90.71;98761.81;5030351;28;20522;-77
2022/12/28 00:49:50;;;;;;;9.17;6.60;;;0.00;99.90;;;-0.58;90.80;98765.19;5023121;28;20962;-77
2022/12/28 00:52:17;;;;;;;8.60;6.80;;;0.00;99.90;;;-0.56;90.95;98751.81;5013752;28;20512;-75
2022/12/28 00:54:45;;;;;;;10.87;7.00;;;0.00;99.90;;;-0.60;90.88;98755.69;5028932;28;20946;-77
2022/12/28 00:57:12;;;;;;;14.33;7.30;;;0.00;99.90;;;-0.63;90.52;98751.47;5029683;28;20527;-76
2022/12/28 00:59:40;;;;;;;11.33;7.03;;;0.10;99.90;;;-0.44;90.60;98755.25;5017761;28;20486;-77
2022/12/28 01:02:08;;;;;;;8.60;6.77;;;0.10;99.90;;;-0.41;90.51;98755.00;5024872;28;20507;-78
2022/12/28 01:04:35;;;;;;;11.87;7.50;;;0.10;99.90;;;-0.43;90.98;98747.16;5014234;28;20451;-77
2022/12/28 01:07:02;;;;;;;11.77;7.60;;;0.10;99.90;;;-0.40;90.97;98751.34;5028807;28;20465;-75
2022/12/28 01:09:29;;;;;;;9.00;7.30;;;0.10;99.90;;;-0.37;90.66;98758.25;5029437;28;20859;-77
2022/12/28 01:11:56;;;;;;;8.10;6.73;;;0.20;99.90;;;-0.38;90.50;98759.22;5029456;28;20468;-77
2022/12/28 01:14:23;;;;;;;8.10;7.20;;;0.20;99.90;;;-0.29;90.86;98753.97;5036129;28;20583;-77
2022/12/28 01:16:52;;;;;;;10.83;7.30;;;0.30;99.90;;;-0.69;91.00;98682.94;5039183;28;20472;-75
2022/12/28 01:19:22;;;;;;;11.10;8.03;;;0.30;99.90;;;-0.09;90.87;98754.09;5031140;28;20482;-77
2022/12/28 01:21:51;;;;;;;9.60;7.03;;;0.40;99.90;;;-0.18;90.24;98754.91;5028627;28;20469;-77
2022/12/28 01:24:18;;;;;;;10.87;7.83;;;0.40;99.90;;;-0.09;90.58;98754.09;5037251;28;20502;-77
2022/12/28 01:26:46;;;;;;;12.93;7.93;;;0.50;99.90;;;0.03;89.95;98746.06;5032289;28;20468;-79
2022/12/28 01:29:13;;;;;;;9.50;7.50;;;0.50;99.90;;;-0.06;90.77;98748.56;5034004;28;20464;-75
2022/12/28 01:31:40;;;;;;;12.90;8.50;;;0.60;99.90;;;0.01;90.29;98742.72;5023602;28;20505;-78
2022/12/28 01:34:08;;;;;;;11.80;8.00;;;0.50;99.90;;;-0.06;90.68;98735.28;5031117;28;20461;-74
2022/12/28 01:36:35;;;;;;;12.83;7.57;;;0.60;99.90;;;-0.05;90.74;98733.44;5032405;28;20492;-77
2022/12/28 01:39:05;;;;;;;10.40;8.07;;;0.60;99.90;;;-0.04;90.46;98719.19;5032301;28;20512;-78
2022/12/28 01:41:38;;;;;;;9.53;7.53;;;0.60;99.90;;;-0.20;91.05;98688.59;5031712;28;20441;-77
2022/12/28 01:44:45;;;;;;;9.73;7.50;;;0.60;99.90;;;-0.04;90.65;98714.72;5025884;28;20465;-77
2022/12/28 01:47:17;;;;;;;13.40;8.40;;;0.60;99.90;;;-0.01;90.34;98709.16;5032281;28;20450;-77
2022/12/28 01:49:54;;;;;;;12.10;7.53;;;0.60;99.90;;;-0.16;91.11;98699.81;5031018;28;20588;-77
2022/12/28 01:52:28;;;;;;;10.70;8.87;;;0.50;99.90;;;-0.10;90.55;98704.59;5033186;28;20515;-76
2022/12/28 01:55:03;;;;;;;11.97;8.80;;;0.50;99.90;;;-0.10;91.15;98688.66;5028354;28;20534;-74
2022/12/28 01:57:37;;;;;;;13.07;9.40;;;0.60;99.90;;;-0.48;91.06;98621.06;5031683;28;20896;-77
2022/12/28 02:00:10;;;;;;;12.03;9.53;;;0.60;99.90;;;-0.03;91.74;98670.38;5032073;28;20506;-76
2022/12/28 02:02:39;;;;;;;12.73;9.60;;;0.60;99.90;;;-0.01;91.75;98669.28;5016462;28;20548;-77
2022/12/28 02:05:09;;;;;;;15.60;10.30;;;0.70;99.90;;;0.05;91.43;98665.28;5030403;28;20497;-78
2022/12/28 02:07:46;;;;;;;15.30;11.20;;;0.70;99.90;;;0.08;91.52;98665.00;5032550;28;20500;-78
2022/12/28 02:10:15;;;;;;;17.07;10.40;;;0.80;99.90;;;0.13;91.36;98662.78;5024388;28;20791;-77
2022/12/28 02:12:44;;;;;;;12.93;10.03;;;0.80;99.90;;;0.18;91.96;98659.72;5032309;28;20481;-75
2022/12/28 02:15:12;;;;;;;15.90;11.47;;;0.90;99.90;;;0.37;91.56;98666.09;5030602;28;20441;-76
2022/12/28 02:17:39;;;;;;;17.20;10.40;;;0.90;99.90;;;0.37;91.14;98653.66;5019025;28;20535;-77
2022/12/28 02:20:09;;;;;;;17.73;11.13;;;1.00;99.90;;;0.28;91.58;98647.31;5029595;28;20546;-77
2022/12/28 02:23:23;;;;;;;16.00;12.97;;;1.00;99.90;;;0.45;91.69;98645.00;5029130;28;20455;-77
2022/12/28 02:26:28;;;;;;;19.20;12.87;;;1.10;99.90;;;0.49;91.18;98637.59;5015412;28;20508;-77
2022/12/28 02:29:31;;;;;;;16.60;13.10;;;1.10;99.90;;;0.53;91.49;98637.19;5020610;28;20508;-73
2022/12/28 02:32:08;;;;;;;20.07;13.23;;;1.10;99.90;;;0.43;91.29;98628.34;5030147;28;20610;-77
2022/12/28 02:34:41;;;;;;;16.90;13.60;;;1.10;99.90;;;0.55;91.25;98629.91;5028542;28;20518;-78
2022/12/28 02:37:15;;;;;;;15.70;12.80;;;1.10;99.90;;;0.51;91.31;98630.31;5030986;28;20486;-75
2022/12/28 02:39:48;;;;;;;15.40;13.53;;;1.10;99.90;;;0.51;91.93;98628.50;5026433;28;20481;-76
2022/12/28 02:42:17;;;;;;;16.37;13.83;;;1.10;99.90;;;0.51;91.49;98625.00;5020715;28;20495;-77
2022/12/28 02:50:17;;;;;;;18.37;14.77;;;1.10;99.90;;;0.55;92.04;98606.00;5043112;28;20446;-76
2022/12/28 02:53:11;;;;;;;20.37;14.60;;;1.10;99.90;;;0.49;92.03;98608.34;5028516;28;20464;-76
2022/12/28 02:56:08;;;;;;;22.60;14.67;;;1.10;99.90;;;0.46;91.97;98592.69;5030988;28;20851;-77
2022/12/28 02:59:22;;;;;;;21.10;16.20;;;1.10;99.90;;;0.53;91.98;98589.34;5021563;28;20529;-78
2022/12/28 03:02:17;;;;;;;21.97;14.93;;;1.10;99.90;;;0.54;91.67;98585.69;4986243;28;20481;-77
2022/12/28 03:05:01;;;;;;;23.10;17.10;;;1.10;99.90;;;0.43;92.93;98583.16;5028255;28;20466;-79
2022/12/28 03:10:29;;;;;;;23.23;14.83;;;1.10;99.90;;;0.60;92.46;98584.28;5028754;28;20477;-77
2022/12/28 03:13:01;;;;;;;21.20;16.20;;;1.20;99.90;;;0.61;92.38;98566.50;5028002;28;20457;-77
2022/12/28 03:15:33;;;;;;;19.80;14.97;;;1.20;99.90;;;0.62;92.37;98565.53;5029695;28;20492;-77
2022/12/28 03:32:06;;;;;;;21.03;15.20;;;1.40;99.90;;;0.75;91.99;98543.97;5021698;28;20444;-75
2022/12/28 03:34:36;;;;;;;25.20;16.53;;;1.40;99.90;;;0.73;91.94;98536.16;5027442;28;20471;-77
2022/12/28 03:37:12;;;;;;;19.47;16.27;;;1.40;99.90;;;0.80;92.25;98531.94;5026407;28;20512;-77
2022/12/28 03:39:45;;;;;;;24.80;17.20;;;1.40;99.90;;;0.79;91.39;98524.94;5011731;28;20473;-77
2022/12/28 03:45:10;;;;;;;21.50;15.73;;;1.50;99.90;;;0.80;91.47;98523.94;5027874;28;20801;-78
2022/12/28 03:47:40;;;;;;;21.37;15.27;;;1.50;99.90;;;0.79;91.75;98522.28;5029661;28;20453;-78
2022/12/28 03:50:09;;;;;;;24.10;17.03;;;1.50;99.90;;;0.80;91.75;98520.47;5026233;28;20531;-75
2022/12/28 03:52:36;;;;;;;23.57;17.67;;;1.50;99.90;;;0.88;91.61;98533.06;5039425;28;20463;-74
2022/12/28 03:55:05;;;;;;;21.00;16.00;;;1.50;99.90;;;0.83;91.59;98510.41;5034725;28;20461;-79
2022/12/28 03:57:32;;;;;;;21.27;16.53;;;1.50;99.90;;;1.02;90.63;98519.34;5012961;28;20466;-78
2022/12/28 03:59:59;;;;;;;20.73;15.23;;;1.60;99.90;;;0.95;90.82;98519.06;5028222;28;20531;-77
2022/12/28 04:02:26;;;;;;;23.17;15.97;;;1.60;99.90;;;1.00;90.64;98521.31;5029314;28;20500;-77
2022/12/28 04:04:53;;;;;;;20.73;15.10;;;1.60;99.90;;;1.12;90.16;98519.31;5029001;28;20504;-77
2022/12/28 04:07:22;;;;;;;19.93;15.07;;;1.70;99.90;;;1.18;90.15;98512.59;5030465;28;20774;-77
2022/12/28 04:09:49;;;;;;;19.03;15.00;;;1.70;99.90;;;1.16;90.09;98514.56;5026458;28;20527;-75
2022/12/28 04:12:16;;;;;;;20.40;14.63;;;1.80;99.60;;;1.03;90.00;98489.06;5027877;28;20464;-79
2022/12/28 04:14:44;;;;;;;19.03;15.33;;;1.80;98.60;;;1.28;89.38;98508.06;5030020;28;20539;-78
2022/12/28 04:17:11;;;;;;;17.63;14.17;;;1.80;98.30;;;1.05;89.75;98487.09;5025448;28;20464;-77
2022/12/28 04:19:38;;;;;;;21.83;15.80;;;1.70;98.00;;;0.95;90.59;98489.78;5012797;28;20475;-75
2022/12/28 04:22:05;;;;;;;20.60;15.40;;;1.60;98.50;;;0.82;90.51;98476.75;5022678;28;20532;-80
2022/12/28 04:24:34;;;;;;;20.53;15.47;;;1.60;98.70;;;0.74;90.74;98473.13;5028984;28;20946;-78
2022/12/28 04:27:01;;;;;;;19.23;15.20;;;1.50;99.50;;;0.76;90.35;98477.34;5029674;28;20512;-78
2022/12/28 04:29:28;;;;;;;18.93;13.83;;;1.40;99.90;;;0.70;91.23;98477.91;5030590;28;20515;-77
2022/12/28 04:31:55;;;;;;;17.30;13.73;;;1.40;99.90;;;0.64;91.22;98483.78;5022491;28;20497;-77
2022/12/28 04:34:22;;;;;;;19.20;15.10;;;1.40;99.90;;;0.66;91.49;98481.81;5016817;28;20463;-76
2022/12/28 04:36:49;;;;;;;22.27;14.80;;;1.40;99.90;;;0.67;91.80;98463.06;5029759;28;20490;-78
2022/12/28 04:39:16;;;;;;;16.23;13.80;;;1.40;99.90;;;0.94;91.11;98479.28;5029999;28;20473;-77
2022/12/28 04:41:45;;;;;;;21.93;14.97;;;1.50;99.90;;;0.86;90.96;98482.66;5028168;28;20531;-76
2022/12/28 04:44:12;;;;;;;25.60;15.80;;;1.50;99.90;;;1.00;90.56;98478.72;5027457;28;20978;-79
2022/12/28 04:46:39;;;;;;;22.00;15.27;;;1.60;99.90;;;1.09;89.78;98483.16;5028862;28;20445;-77
2022/12/28 04:49:07;;;;;;;19.47;16.40;;;1.70;99.90;;;1.17;89.65;98484.28;5018408;28;20458;-75
2022/12/28 04:51:34;;;;;;;20.77;15.20;;;1.80;99.40;;;1.21;89.58;98485.69;5028440;28;20868;-78
2022/12/28 04:54:02;;;;;;;20.47;14.70;;;1.80;98.10;;;1.25;89.01;98489.72;5029381;28;20514;-77
2022/12/28 04:56:29;;;;;;;19.73;14.70;;;1.80;98.00;;;1.24;89.26;98483.56;5017530;28;20509;-77
2022/12/28 04:59:00;;;;;;;17.43;13.60;;;1.80;97.30;;;1.32;88.74;98482.84;5023050;28;20848;-77
2022/12/28 05:01:28;;;;;;;16.83;13.53;;;1.90;97.20;;;1.39;88.92;98478.59;5032139;28;20944;-75
2022/12/28 05:03:56;;;;;;;18.80;13.63;;;1.90;97.10;;;1.33;88.37;98459.72;5032474;28;20953;-75
2022/12/28 05:06:26;;;;;;;17.43;14.13;;;2.00;96.30;;;1.47;88.04;98479.72;5032384;28;20483;-77
2022/12/28 05:08:53;;;;;;;19.70;12.53;;;2.00;96.00;;;1.40;88.02;98469.63;5033909;28;20461;-78
2022/12/28 05:11:23;;;;;;;15.80;12.50;;;2.00;96.00;;;1.43;88.25;98463.19;5025184;28;20560;-79
2022/12/28 05:13:50;;;;;;;18.20;13.60;;;2.10;95.60;;;1.41;87.99;98465.97;5032205;28;20522;-75
2022/12/28 05:16:22;;;;;;;16.47;14.03;;;2.10;95.00;;;1.39;87.74;98441.31;5031787;28;20959;-77
2022/12/28 05:18:49;;;;;;;18.27;13.10;;;2.10;95.30;;;1.64;87.65;98470.09;5015642;28;20480;-78
2022/12/28 05:21:19;;;;;;;16.70;13.20;;;2.20;95.20;;;1.62;87.09;98458.75;5028978;28;20465;-77
2022/12/28 05:23:47;;;;;;;15.77;12.40;;;2.20;95.00;;;1.56;87.66;98473.50;5030935;28;20444;-77
2022/12/28 05:26:18;;;;;;;17.33;11.90;;;2.30;94.20;;;1.64;87.46;98470.94;5031348;28;20824;-78
2022/12/28 05:28:46;;;;;;;18.50;13.10;;;2.30;94.40;;;1.57;87.93;98448.53;5025611;28;20458;-77
2022/12/28 05:31:17;;;;;;;16.87;12.57;;;2.30;94.70;;;1.63;87.76;98458.63;5023993;28;20464;-78
2022/12/28 05:33:46;;;;;;;16.30;13.07;;;2.40;94.30;;;1.76;87.40;98452.13;5031407;28;20450;-78
2022/12/28 05:36:15;;;;;;;15.40;12.03;;;2.40;94.20;;;1.83;87.63;98458.50;5030170;28;20460;-78
2022/12/28 05:38:43;;;;;;;20.20;12.70;;;2.40;94.60;;;1.87;87.35;98443.91;5033540;28;20470;-76
2022/12/28 05:41:14;;;;;;;18.60;13.23;;;2.50;94.70;;;1.90;86.75;98418.78;5032450;28;20453;-77
2022/12/28 05:43:42;;;;;;;15.50;13.20;;;2.50;94.10;;;1.94;87.19;98444.13;5015138;28;20523;-79
2022/12/28 05:46:14;;;;;;;17.37;12.33;;;2.50;94.00;;;2.01;87.00;98450.56;5030679;28;20447;-77
2022/12/28 05:48:42;;;;;;;14.23;11.63;;;2.60;94.40;;;1.30;87.46;98351.69;5012423;28;20458;-79
2022/12/28 05:51:14;;;;;;;13.20;10.50;;;2.60;94.00;;;1.86;87.85;98439.56;5033191;28;20476;-78
2022/12/28 05:53:42;;;;;;;14.23;11.83;;;2.60;94.30;;;2.00;87.58;98437.38;5032075;28;20449;-74
2022/12/28 05:56:13;;;;;;;15.10;12.23;;;2.60;94.00;;;2.16;87.13;98426.06;5033646;28;20457;-76
2022/12/28 05:58:41;;;;;;;13.70;11.47;;;2.70;94.10;;;2.18;86.74;98434.75;5045775;28;20473;-77
2022/12/28 06:01:11;;;;;;;16.27;12.73;;;2.80;93.90;;;2.18;86.70;98424.91;5048056;28;20461;-77
2022/12/28 06:03:39;;;;;;;15.33;12.53;;;2.80;93.90;;;2.06;87.00;98432.28;5035917;28;20457;-71
2022/12/28 06:06:09;;;;;;;12.70;11.20;;;2.80;93.80;;;2.21;87.00;98432.63;5032593;28;20467;-75
2022/12/28 06:08:39;;;;;;;14.10;11.67;;;2.80;94.10;;;2.16;86.96;98437.53;5031582;28;20459;-77
2022/12/28 06:11:09;;;;;;;12.57;10.60;;;2.90;93.30;;;2.17;87.20;98423.22;5019257;28;20468;-77
2022/12/28 06:13:37;;;;;;;14.00;11.50;;;2.80;93.80;;;2.29;86.44;98428.34;5032384;28;20467;-75
2022/12/28 06:16:09;;;;;;;14.70;11.83;;;2.90;93.70;;;2.35;86.45;98425.91;5026635;28;21174;-80
2022/12/28 06:18:36;;;;;;;14.27;11.07;;;3.00;93.70;;;2.31;87.29;98426.34;5034756;28;20544;-78
2022/12/28 06:21:07;;;;;;;17.10;11.90;;;3.00;93.40;;;2.30;87.26;98428.19;5025106;28;20461;-79
2022/12/28 06:23:34;;;;;;;14.27;11.60;;;3.00;93.40;;;2.44;87.35;98429.47;5021701;28;20447;-77
2022/12/28 06:26:06;;;;;;;16.33;12.23;;;3.00;94.20;;;2.60;86.32;98415.44;5024061;28;20469;-78
2022/12/28 06:28:36;;;;;;;17.67;12.80;;;3.10;94.00;;;2.39;86.58;98411.25;5019615;28;20481;-79
2022/12/28 06:31:05;;;;;;;14.57;11.97;;;3.10;93.10;;;2.47;86.46;98417.66;5031342;28;20465;-79
2022/12/28 06:33:33;;;;;;;18.30;13.17;;;3.10;93.00;;;2.42;86.42;98420.78;5029520;28;20455;-78
2022/12/28 06:36:00;;;;;;;17.70;13.17;;;3.10;92.90;;;2.45;86.44;98420.47;5031399;28;20457;-79
2022/12/28 06:38:31;;;;;;;17.20;12.40;;;3.10;93.10;;;2.30;86.40;98411.34;5015899;28;20485;-77
2022/12/28 06:41:05;;;;;;;17.10;13.20;;;3.10;93.00;;;2.07;87.14;98363.84;5036144;28;20942;-79
2022/12/28 06:43:32;;;;;;;17.97;12.63;;;3.10;93.50;;;2.48;86.85;98414.00;5026766;28;20543;-72
2022/12/28 06:46:01;;;;;;;14.13;12.37;;;3.10;93.20;;;2.43;86.66;98422.47;5037930;28;20462;-77
2022/12/28 06:48:29;;;;;;;16.37;12.57;;;3.10;93.40;;;2.40;87.46;98417.44;5035142;28;20966;-77
2022/12/28 06:50:57;;;;;;;18.00;12.80;;;3.00;93.50;;;2.49;87.17;98413.03;5025098;28;20446;-76
2022/12/28 06:53:25;;;;;;;19.00;14.10;;;3.00;94.00;;;1.98;86.63;98333.59;5031008;28;20461;-77
2022/12/28 06:55:54;;;;;;;21.70;15.77;;;3.00;93.80;;;2.50;86.32;98412.03;5035569;28;20438;-77
2022/12/28 06:58:23;;;;;;;20.37;13.47;;;3.10;93.70;;;2.44;86.83;98402.81;5032066;28;20461;-79
2022/12/28 07:00:51;;;;;;;21.47;14.80;;;3.10;93.80;;;2.49;87.10;98399.69;5037455;28;20477;-74
2022/12/28 07:03:18;;;;;;;19.70;14.10;;;3.10;94.20;;;2.53;86.99;98395.72;5045026;28;20497;-75
2022/12/28 07:05:45;;;;;;;20.53;14.70;;;3.10;94.00;;;2.53;87.01;98391.22;5043998;28;20470;-72
2022/12/28 07:08:13;;;;;;;17.40;14.57;;;3.10;93.70;;;2.48;87.27;98388.16;5047564;28;20848;-75
2022/12/28 07:10:41;;;;;;;18.23;13.53;;;3.10;93.70;;;2.39;86.76;98368.59;5032862;28;20524;-78
2022/12/28 07:13:08;;;;;;;17.13;13.80;;;3.20;93.80;;;2.57;86.81;98377.56;5032361;28;20477;-82
2022/12/28 07:15:37;;;;;;;18.10;13.37;;;3.20;93.50;;;2.57;87.52;98378.38;5022381;28;20821;-78
2022/12/28 07:18:04;;;;;;;18.40;13.93;;;3.20;93.80;;;2.69;86.86;98373.66;5043671;28;20520;-76
2022/12/28 07:20:32;;;;;;;17.30;14.40;;;3.30;94.10;;;2.75;86.19;98375.69;5049261;28;20469;-77
2022/12/28 07:22:59;;;;;;;20.83;14.47;;;3.30;93.70;;;2.74;86.10;98363.34;5035261;28;20452;-77
2022/12/28 07:25:26;;;;;;;18.17;13.83;;;3.30;93.30;;;2.72;86.70;98368.00;5030823;28;20452;-80
2022/12/28 07:27:53;;;;;;;19.37;14.37;;;3.30;93.20;;;2.74;86.14;98365.19;5032823;28;20527;-75
2022/12/28 07:30:20;;;;;;;17.40;14.57;;;3.40;92.90;;;2.78;85.99;98372.69;5032574;28;20555;-79
2022/12/28 07:32:49;;;;;;;21.10;13.90;;;3.40;93.40;;;2.95;86.00;98359.47;5032219;28;20847;-79
2022/12/28 07:35:16;;;;;;;20.13;14.70;;;3.40;93.60;;;2.77;86.36;98356.88;5030309;28;20516;-80
2022/12/28 07:37:44;;;;;;;17.60;13.47;;;3.40;92.90;;;2.87;85.96;98348.75;5032457;28;20458;-79
2022/12/28 07:40:12;;;;;;;16.53;13.70;;;3.50;93.20;;;2.57;85.70;98303.69;5030006;28;20505;-79
2022/12/28 07:42:39;;;;;;;17.00;13.57;;;3.50;93.10;;;2.98;85.88;98356.50;5019072;28;20454;-79
2022/12/28 07:45:09;;;;;;;16.70;12.53;;;3.50;92.90;;;2.90;86.00;98351.09;5021770;28;20457;-79
2022/12/28 07:47:36;;;;;;;16.17;12.40;;;3.50;92.50;;;2.98;85.97;98351.16;5031799;28;20450;-79
2022/12/28 07:50:06;;;;;;;17.50;14.00;;;3.60;92.80;;;3.05;85.52;98354.84;5032155;28;20519;-79
2022/12/28 07:52:36;;;;;;;17.87;13.00;;;3.60;92.50;;;3.11;85.81;98356.91;5019973;28;20466;-80
2022/12/28 07:55:03;;;;;;;17.20;12.90;;;3.60;92.70;;;3.07;85.00;98358.19;5015011;28;20451;-75
2022/12/28 07:57:31;;;;;;;16.53;12.43;;;3.70;92.30;;;3.14;85.93;98352.25;5032278;28;20896;-79
2022/12/28 07:59:58;;;;;;;20.50;13.53;;;3.70;92.70;;;3.28;85.02;98359.66;5024902;28;20471;-80
2022/12/28 08:02:25;;;;;;;20.10;13.23;;;3.80;92.20;;;3.27;84.43;98352.63;5023810;28;20461;-78
2022/12/28 08:04:52;;;;;;;15.00;12.73;;;3.90;91.80;;;3.47;83.81;98349.69;5030066;28;20450;-81
2022/12/28 08:07:20;;;;;;;17.57;13.80;;;4.00;91.80;;;3.38;83.77;98349.66;5027520;28;20513;-78
2022/12/28 08:09:48;;;;;;;20.10;13.10;;;4.00;91.50;;;3.47;83.84;98334.47;5030774;28;20465;-79
2022/12/28 08:12:15;;;;;;;14.70;12.60;;;4.00;91.50;;;3.53;83.87;98341.03;5029464;28;20465;-78
2022/12/28 08:14:42;;;;;;;16.70;13.10;;;4.10;91.30;;;3.42;84.30;98347.50;5031988;28;20465;-82
2022/12/28 08:17:09;;;;;;;14.63;12.13;;;4.00;91.20;;;3.43;84.87;98343.84;5035536;28;20918;-77
2022/12/28 08:19:36;;;;;;;12.97;11.33;;;4.00;91.50;;;3.58;83.39;98336.03;5022735;28;20527;-79
2022/12/28 08:22:04;;;;;;;17.80;13.63;;;4.10;91.40;;;3.58;83.57;98329.84;5022270;28;20461;-80
2022/12/28 08:24:34;;;;;;;16.27;12.30;;;4.10;91.40;;;3.46;84.38;98330.16;5026623;28;20449;-78
2022/12/28 08:27:01;;;;;;;17.07;12.97;;;4.10;91.40;;;3.64;83.54;98338.06;5029687;28;20465;-77
2022/12/28 08:29:28;;;;;;;14.20;11.63;;;4.20;91.40;;;3.67;83.23;98332.38;5028525;28;20988;-79
2022/12/28 08:31:55;;;;;;;14.93;11.57;;;4.20;91.10;;;3.57;83.59;98334.38;5023590;28;20478;-75
2022/12/28 08:34:25;;;;;;;16.57;12.87;;;4.20;91.20;;;3.76;83.57;98340.44;5030565;28;21016;-80
2022/12/28 08:36:53;;;;;;;15.90;12.50;;;4.20;91.10;;;3.97;82.46;98337.28;5028531;28;20500;-79
2022/12/28 08:39:20;;;;;;;13.60;11.63;;;4.40;91.00;;;4.19;81.53;98346.50;5033294;28;20481;-77
2022/12/28 08:41:48;;;;;;;15.07;12.23;;;4.50;90.50;;;4.05;81.83;98347.16;5033512;28;20929;-81
2022/12/28 08:44:15;;;;;;;14.50;11.40;;;4.60;89.40;;;4.00;81.56;98296.84;5030401;28;20585;-78
2022/12/28 08:46:42;;;;;;;15.20;11.30;;;4.70;89.30;;;4.28;81.28;98335.78;5033974;28;20465;-78
2022/12/28 08:49:11;;;;;;;13.87;10.37;;;4.80;88.70;;;4.49;80.78;98322.75;5034353;28;21190;-81
2022/12/28 08:51:40;;;;;;;13.67;10.10;;;4.90;87.90;;;4.49;80.92;98321.91;5023182;28;20885;-80
2022/12/28 08:54:09;;;;;;;12.27;10.60;;;4.90;88.00;;;4.70;79.06;98324.06;5028127;28;20470;-80
2022/12/28 08:56:39;;;;;;;13.73;11.40;;;5.10;87.10;;;4.68;79.00;98321.53;5035078;28;20458;-78
2022/12/28 08:59:08;;;;;;;11.83;10.07;;;5.20;86.30;;;4.48;79.77;98320.25;5016465;28;21149;-80
2022/12/28 09:01:38;;;;;;;14.23;10.30;;;5.10;86.00;;;4.80;79.60;98324.72;5031891;28;20999;-81
2022/12/28 09:04:06;;;;;;;13.70;10.87;;;5.20;86.40;;;4.70;78.47;98329.41;5026904;28;20955;-81
2022/12/28 09:06:36;;;;;;;13.07;10.30;;;5.20;85.70;;;4.80;78.45;98314.00;5029910;28;20542;-79
2022/12/28 09:09:06;;;;;;;15.33;10.43;;;5.30;85.30;;;4.73;78.60;98323.72;5023529;28;20858;-76
2022/12/28 09:11:34;;;;;;;12.13;10.10;;;5.30;85.30;;;4.79;78.56;98311.50;5033566;28;20450;-79
2022/12/28 09:14:02;;;;;;;11.33;10.13;;;5.40;85.20;;;5.03;77.88;98326.66;5030982;28;20509;-79
2022/12/28 09:16:30;;;;;;;11.87;9.50;;;5.40;85.30;;;5.05;77.53;98321.94;5029910;28;20455;-79
2022/12/28 09:19:00;;;;;;;11.27;9.20;;;5.50;85.10;;;5.10;77.04;98322.28;5034159;28;20450;-80
2022/12/28 09:21:31;;;;;;;14.53;10.43;;;5.60;84.30;;;5.31;76.23;98318.19;5025659;28;20532;-77
2022/12/28 09:23:59;;;;;;;11.53;8.80;;;5.70;83.90;;;5.29;76.13;98320.22;5031598;28;20551;-78
2022/12/28 09:26:28;;;;;;;13.50;9.83;;;5.80;83.50;;;5.35;76.08;98316.81;5033894;28;20521;-76
2022/12/28 09:28:58;;;;;;;11.77;9.30;;;5.90;83.40;;;5.53;76.16;98318.41;5016030;28;20530;-81
2022/12/28 09:31:28;;;;;;;12.43;10.10;;;5.90;83.30;;;5.56;75.39;98311.88;5029866;28;20542;-78
2022/12/28 09:34:00;;;;;;;13.30;10.27;;;6.00;82.90;;;5.63;75.83;98312.84;5032459;28;20473;-79
2022/12/28 09:36:30;;;;;;;10.17;9.13;;;6.00;82.90;;;5.44;75.55;98290.00;5026802;28;20455;-77
2022/12/28 09:38:59;;;;;;;11.07;8.80;;;6.00;82.80;;;5.56;75.83;98301.13;5013721;28;20987;-79
2022/12/28 09:41:30;;;;;;;12.03;8.50;;;6.00;82.80;;;5.35;75.23;98306.09;5029463;28;20478;-80
2022/12/28 09:44:40;;;;;;;10.43;9.40;;;5.90;82.50;;;5.49;75.38;98309.06;5031224;28;20461;-78
2022/12/28 09:47:18;;;;;;;12.43;8.53;;;6.00;82.80;;;5.51;75.87;98304.34;5027589;28;20559;-81
2022/12/28 09:50:05;;;;;;;12.43;9.13;;;5.90;82.80;;;5.55;75.66;98294.97;5032387;28;20493;-80
2022/12/28 09:52:37;;;;;;;10.17;8.60;;;6.00;82.80;;;5.51;76.17;98298.97;5034558;28;20459;-78
2022/12/28 09:55:11;;;;;;;12.13;8.80;;;6.00;82.80;;;5.56;75.99;98302.00;5035383;28;20452;-74
2022/12/28 09:57:43;;;;;;;9.30;7.50;;;6.00;82.90;;;5.53;76.38;98296.97;5046263;28;21028;-79
2022/12/28 10:00:17;;;;;;;12.83;9.33;;;6.00;82.90;;;5.57;75.78;98276.84;5033889;28;20549;-79
2022/12/28 10:02:51;;;;;;;9.47;8.27;;;6.00;82.80;;;5.62;75.43;98295.09;5034062;28;20469;-80
2022/12/28 10:05:21;;;;;;;9.67;8.67;;;6.10;82.40;;;5.70;75.49;98294.22;5026379;28;20466;-80
2022/12/28 10:07:49;;;;;;;9.10;8.20;;;6.20;82.50;;;5.46;74.97;98237.03;5027808;28;21029;-81
2022/12/28 10:10:19;;;;;;;10.40;9.00;;;6.20;82.40;;;5.98;73.87;98288.28;5017114;28;20955;-80
2022/12/28 10:12:47;;;;;;;9.70;8.70;;;6.30;82.20;;;6.00;73.83;98291.66;5031345;28;20528;-80
2022/12/28 10:15:16;;;;;;;9.37;8.47;;;6.40;82.00;;;6.03;73.90;98275.22;5032910;28;20451;-82
2022/12/28 10:17:44;;;;;;;9.67;8.30;;;6.40;81.70;;;5.86;74.61;98285.19;5031753;28;20463;-83
2022/12/28 10:20:17;;;;;;;11.60;8.40;;;6.40;81.70;;;5.88;74.09;98283.19;5022223;28;20472;-81
2022/12/28 10:22:51;;;;;;;9.33;7.47;;;6.40;81.90;;;6.00;73.68;98280.94;5030361;28;20820;-79
2022/12/28 10:25:21;;;;;;;10.97;8.87;;;6.40;81.80;;;5.95;73.79;98270.72;5029917;28;20890;-77
2022/12/28 10:27:49;;;;;;;8.57;7.60;;;6.50;81.60;;;6.17;73.01;98271.75;5033657;28;20933;-79
2022/12/28 10:30:19;;;;;;;9.37;7.80;;;6.60;81.30;;;6.23;73.17;98267.53;5016174;28;20451;-82
2022/12/28 10:32:52;;;;;;;8.93;8.00;;;6.60;81.50;;;6.09;73.50;98264.63;5030875;28;20491;-81
2022/12/28 10:35:27;;;;;;;9.13;7.80;;;6.50;81.60;;;6.15;73.66;98270.25;5032882;28;20508;-81
2022/12/28 10:38:03;;;;;;;11.07;7.87;;;6.50;81.50;;;6.20;73.62;98260.66;5025110;28;20454;-80
2022/12/28 10:40:34;;;;;;;10.27;7.77;;;6.60;81.60;;;6.29;72.91;98258.72;5025572;28;20469;-78
2022/12/28 10:43:01;;;;;;;8.27;7.37;;;6.70;81.40;;;6.47;72.25;98254.88;5033151;28;20512;-79
2022/12/28 10:45:36;;;;;;;8.40;7.50;;;6.80;81.20;;;6.50;72.26;98249.97;5024701;28;20481;-79
2022/12/28 10:48:10;;;;;;;9.07;7.20;;;6.80;81.10;;;6.57;72.08;98243.88;5030884;28;21000;-79
2022/12/28 10:50:48;;;;;;;10.50;7.63;;;6.90;81.00;;;6.64;71.74;98236.75;5029262;28;20465;-77
2022/12/28 10:53:27;;;;;;;9.37;7.27;;;6.90;80.90;;;6.67;71.95;98241.75;5026918;28;20815;-80
2022/12/28 10:56:20;;;;;;;8.17;6.50;;;7.00;80.50;;;6.58;71.71;98241.00;5020339;28;20454;-79
2022/12/28 10:58:49;;;;;;;7.20;6.50;;;7.10;80.40;;;6.59;71.68;98245.34;5023818;28;20490;-83